createdAt,value
2024-05-09T00:00:06.875Z,16.87
2024-05-09T00:02:56.762Z,16.80
2024-05-09T00:05:46.869Z,17.01
2024-05-09T00:08:33.593Z,16.77
2024-05-09T00:11:20.731Z,16.87
2024-05-09T00:14:07.438Z,17.11
2024-05-09T00:16:53.940Z,16.94
2024-05-09T00:19:40.483Z,16.52
2024-05-09T00:22:29.605Z,17.15
2024-05-09T00:25:16.193Z,16.79
2024-05-09T00:28:03.352Z,16.70
2024-05-09T00:30:49.871Z,17.18
2024-05-09T00:33:36.447Z,16.95
2024-05-09T00:36:23.004Z,16.90
2024-05-09T00:39:12.174Z,16.64
2024-05-09T00:41:59.778Z,17.07
2024-05-09T00:44:46.201Z,16.81
2024-05-09T00:47:33.209Z,16.38
2024-05-09T00:50:29.348Z,16.40
2024-05-09T00:53:21.789Z,16.44
2024-05-09T00:56:13.147Z,16.32
2024-05-09T00:58:59.734Z,16.52
2024-05-09T01:01:47.127Z,16.41
2024-05-09T01:04:33.606Z,16.27
2024-05-09T01:07:20.099Z,16.35
2024-05-09T01:10:13.801Z,16.95
2024-05-09T01:13:07.345Z,16.48
2024-05-09T01:15:54.180Z,16.52
2024-05-09T01:18:40.850Z,16.40
2024-05-09T01:21:27.500Z,16.85
2024-05-09T01:24:16.762Z,16.47
2024-05-09T01:27:03.286Z,16.73
2024-05-09T01:29:49.838Z,16.29
2024-05-09T01:32:36.401Z,16.53
2024-05-09T01:35:23.524Z,16.53
2024-05-09T01:38:12.940Z,16.65
2024-05-09T01:41:02.404Z,16.29
2024-05-09T01:43:48.908Z,16.28
2024-05-09T01:46:35.349Z,16.44
2024-05-09T01:49:21.938Z,16.38
2024-05-09T01:52:08.612Z,16.42
2024-05-09T01:54:55.095Z,16.80
2024-05-09T01:57:44.239Z,16.31
2024-05-09T02:00:38.713Z,16.16
2024-05-09T02:03:28.378Z,16.10
2024-05-09T02:06:15.030Z,16.18
2024-05-09T02:09:01.612Z,16.24
2024-05-09T02:11:50.368Z,16.21
2024-05-09T02:14:39.621Z,16.24
2024-05-09T02:17:26.253Z,16.13
2024-05-09T02:20:18.749Z,16.26
2024-05-09T02:23:13.919Z,16.24
2024-05-09T02:26:00.575Z,16.16
2024-05-09T02:28:47.074Z,15.87
2024-05-09T02:31:36.221Z,16.19
2024-05-09T02:34:23.036Z,16.12
2024-05-09T02:37:09.609Z,16.28
2024-05-09T02:39:53.418Z,16.22
2024-05-09T02:42:39.817Z,15.96
2024-05-09T02:45:25.008Z,16.24
2024-05-09T02:48:15.993Z,16.59
2024-05-09T02:51:01.858Z,16.38
2024-05-09T02:53:48.346Z,16.31
2024-05-09T02:56:32.154Z,16.02
2024-05-09T02:59:18.989Z,16.25
2024-05-09T03:02:02.929Z,16.19
2024-05-09T03:04:52.072Z,16.23
2024-05-09T03:07:35.953Z,16.39
2024-05-09T03:10:28.181Z,16.11
2024-05-09T03:13:16.076Z,15.82
2024-05-09T03:16:03.153Z,15.89
2024-05-09T03:18:47.062Z,16.00
2024-05-09T03:21:36.186Z,16.02
2024-05-09T03:24:19.994Z,16.17
2024-05-09T03:27:06.618Z,15.82
2024-05-09T03:29:50.391Z,16.01
2024-05-09T03:32:37.074Z,16.04
2024-05-09T03:35:20.922Z,15.89
2024-05-09T03:38:10.242Z,16.07
2024-05-09T03:40:56.820Z,15.78
2024-05-09T03:43:43.367Z,16.05
2024-05-09T03:46:29.769Z,15.61
2024-05-09T03:49:13.744Z,16.36
2024-05-09T03:52:05.025Z,16.40
2024-05-09T03:54:51.499Z,16.54
2024-05-09T03:57:38.028Z,16.67
2024-05-09T04:00:35.632Z,16.05
2024-05-09T04:03:25.717Z,15.87
2024-05-09T04:06:09.602Z,15.81
2024-05-09T04:08:56.230Z,16.59
2024-05-09T04:11:42.723Z,16.34
2024-05-09T04:14:29.267Z,16.49
2024-05-09T04:17:15.755Z,16.11
2024-05-09T04:20:00.085Z,16.04
2024-05-09T04:22:46.590Z,15.79
2024-05-09T04:25:31.672Z,16.34
2024-05-09T04:28:23.876Z,16.26
2024-05-09T04:31:07.580Z,16.38
2024-05-09T04:33:54.351Z,16.19
2024-05-09T04:36:40.276Z,16.23
2024-05-09T04:39:28.100Z,15.71
2024-05-09T04:42:11.812Z,15.79
2024-05-09T04:45:00.979Z,16.10
2024-05-09T04:47:44.856Z,15.73
2024-05-09T04:50:36.899Z,15.78
2024-05-09T04:53:25.468Z,15.72
2024-05-09T04:56:09.385Z,15.44
2024-05-09T04:58:55.939Z,15.74
2024-05-09T05:01:42.412Z,15.70
2024-05-09T05:04:29.923Z,15.45
2024-05-09T05:07:13.701Z,15.74
2024-05-09T05:10:00.302Z,15.62
2024-05-09T05:13:02.759Z,15.70
2024-05-09T05:15:49.551Z,16.12
2024-05-09T05:18:38.806Z,15.98
2024-05-09T05:21:22.822Z,15.42
2024-05-09T05:24:09.662Z,15.77
2024-05-09T05:26:53.492Z,15.47
2024-05-09T05:29:39.976Z,15.95
2024-05-09T05:32:23.965Z,15.72
2024-05-09T05:35:13.401Z,15.81
2024-05-09T05:37:57.292Z,16.28
2024-05-09T05:40:44.059Z,15.82
2024-05-09T05:43:29.757Z,15.87
2024-05-09T05:46:16.231Z,16.01
2024-05-09T05:49:00.715Z,16.07
2024-05-09T05:51:50.034Z,16.03
2024-05-09T05:54:33.773Z,15.77
2024-05-09T05:57:20.229Z,15.88
2024-05-09T06:00:09.447Z,16.39
2024-05-09T06:02:56.498Z,16.04
2024-05-09T06:05:40.957Z,16.45
2024-05-09T06:08:30.694Z,16.39
2024-05-09T06:11:14.607Z,16.43
2024-05-09T06:14:02.110Z,16.47
2024-05-09T06:16:46.271Z,16.11
2024-05-09T06:19:33.341Z,16.30
2024-05-09T06:22:17.237Z,16.10
2024-05-09T06:25:06.862Z,16.59
2024-05-09T06:27:50.705Z,16.51
2024-05-09T06:30:40.700Z,16.70
2024-05-09T06:33:26.544Z,16.59
2024-05-09T06:36:13.834Z,16.56
2024-05-09T06:39:00.280Z,16.38
2024-05-09T06:41:46.752Z,16.08
2024-05-09T06:44:33.293Z,16.42
2024-05-09T06:47:17.223Z,15.97
2024-05-09T06:50:04.970Z,16.10
2024-05-09T06:52:52.007Z,16.00
2024-05-09T06:55:39.707Z,15.85
2024-05-09T06:58:26.136Z,16.07
2024-05-09T07:01:12.700Z,16.25
2024-05-09T07:03:57.022Z,16.90
2024-05-09T07:06:43.450Z,16.68
2024-05-09T07:09:27.170Z,16.41
2024-05-09T07:12:13.693Z,16.98
2024-05-09T07:15:00.391Z,16.49
2024-05-09T07:17:46.967Z,16.50
2024-05-09T07:20:34.627Z,16.75
2024-05-09T07:23:22.051Z,16.94
2024-05-09T07:26:05.968Z,16.00
2024-05-09T07:28:52.562Z,16.57
2024-05-09T07:31:38.960Z,16.92
2024-05-09T07:34:25.602Z,16.99
2024-05-09T07:37:12.869Z,16.65
2024-05-09T07:39:59.322Z,16.75
2024-05-09T07:42:43.082Z,16.76
2024-05-09T07:45:45.701Z,16.17
2024-05-09T07:54:14.785Z,16.82
2024-05-09T07:56:58.864Z,16.83
2024-05-09T07:59:45.375Z,16.93
2024-05-09T08:02:29.241Z,16.92
2024-05-09T08:05:18.780Z,16.95
2024-05-09T08:08:05.315Z,16.74
2024-05-09T08:10:49.157Z,16.27
2024-05-09T08:13:35.630Z,16.57
2024-05-09T08:16:19.622Z,16.98
2024-05-09T08:19:06.305Z,16.84
2024-05-09T08:21:52.869Z,16.85
2024-05-09T08:24:39.269Z,16.60
2024-05-09T08:27:23.096Z,16.49
2024-05-09T08:30:18.799Z,16.68
2024-05-09T08:33:08.920Z,16.95
2024-05-09T08:35:55.338Z,16.81
2024-05-09T08:38:41.793Z,16.78
2024-05-09T08:41:28.321Z,16.95
2024-05-09T08:44:12.201Z,16.76
2024-05-09T08:46:59.110Z,16.85
2024-05-09T08:49:42.996Z,16.69
2024-05-09T08:52:29.830Z,16.77
2024-05-09T08:55:16.474Z,16.54
2024-05-09T08:58:06.483Z,16.69
2024-05-09T09:00:50.429Z,16.17
2024-05-09T09:03:40.548Z,16.59
2024-05-09T09:06:25.903Z,16.62
2024-05-09T09:09:13.049Z,16.21
2024-05-09T09:11:59.539Z,16.01
2024-05-09T09:14:45.970Z,16.09
2024-05-09T09:17:29.781Z,16.44
2024-05-09T09:20:22.982Z,16.48
2024-05-09T09:23:10.418Z,16.21
2024-05-09T09:25:56.880Z,16.79
2024-05-09T09:28:44.931Z,16.45
2024-05-09T09:31:31.448Z,16.49
2024-05-09T09:34:18.117Z,16.46
2024-05-09T09:37:05.584Z,16.48
2024-05-09T09:39:53.040Z,16.79
2024-05-09T09:42:38.602Z,16.96
2024-05-09T09:45:27.855Z,16.70
2024-05-09T09:48:15.043Z,16.74
2024-05-09T09:51:03.266Z,17.57
2024-05-09T09:53:51.988Z,17.32
2024-05-09T09:56:39.140Z,16.59
2024-05-09T09:59:25.916Z,16.77
2024-05-09T10:02:14.076Z,16.77
2024-05-09T10:05:00.990Z,16.77
2024-05-09T10:07:48.608Z,16.70
2024-05-09T10:10:36.609Z,16.84
2024-05-09T10:13:21.033Z,16.73
2024-05-09T10:16:12.641Z,16.61
2024-05-09T10:18:59.466Z,16.92
2024-05-09T10:21:49.832Z,16.90
2024-05-09T10:24:48.610Z,16.82
2024-05-09T10:27:35.322Z,16.65
2024-05-09T10:30:29.760Z,16.88
2024-05-09T10:33:23.211Z,16.76
2024-05-09T10:36:14.373Z,17.11
2024-05-09T10:39:02.438Z,17.09
2024-05-09T10:41:46.203Z,16.53
2024-05-09T10:44:32.646Z,17.12
2024-05-09T10:47:16.380Z,16.78
2024-05-09T10:50:04.877Z,16.84
2024-05-09T10:52:53.336Z,17.18
2024-05-09T10:55:39.692Z,17.24
2024-05-09T10:58:24.116Z,17.26
2024-05-09T11:01:11.827Z,17.32
2024-05-09T11:03:57.302Z,16.76
2024-05-09T11:06:28.923Z,16.62
2024-05-09T11:09:00.827Z,16.93
2024-05-09T11:11:32.661Z,17.03
2024-05-09T11:14:12.035Z,17.09
2024-05-09T11:16:43.589Z,16.61
2024-05-09T11:19:14.112Z,17.24
2024-05-09T11:21:45.915Z,17.31
2024-05-09T11:24:17.597Z,16.70
2024-05-09T11:26:49.064Z,17.08
2024-05-09T11:29:19.560Z,17.34
2024-05-09T11:31:51.809Z,17.01
2024-05-09T11:34:21.069Z,17.44
2024-05-09T11:36:52.818Z,16.84
2024-05-09T11:39:24.969Z,16.96
2024-05-09T11:41:56.471Z,17.07
2024-05-09T11:44:25.371Z,16.94
2024-05-09T11:46:57.264Z,17.04
2024-05-09T11:49:27.109Z,16.98
2024-05-09T11:51:59.053Z,17.57
2024-05-09T11:54:30.690Z,17.55
2024-05-09T11:57:02.848Z,17.26
2024-05-09T11:59:31.702Z,17.57
2024-05-09T12:02:03.271Z,17.45
2024-05-09T12:04:32.335Z,17.79
2024-05-09T12:07:04.060Z,17.63
2024-05-09T12:09:35.630Z,17.32
2024-05-09T12:12:08.478Z,17.81
2024-05-09T12:14:37.183Z,17.29
2024-05-09T12:17:08.691Z,17.34
2024-05-09T12:19:37.725Z,18.23
2024-05-09T12:22:09.332Z,17.76
2024-05-09T12:24:40.902Z,17.94
2024-05-09T12:27:27.408Z,17.97
2024-05-09T12:30:14.252Z,18.78
2024-05-09T12:33:03.560Z,17.75
2024-05-09T12:35:50.136Z,17.86
2024-05-09T12:38:37.952Z,18.19
2024-05-09T12:41:28.498Z,17.80
2024-05-09T12:44:12.254Z,18.03
2024-05-09T12:46:58.724Z,17.31
2024-05-09T12:49:42.639Z,18.21
2024-05-09T12:52:28.890Z,17.61
2024-05-09T12:55:12.942Z,17.32
2024-05-09T12:58:02.528Z,18.39
2024-05-09T13:00:47.004Z,18.88
2024-05-09T13:03:34.466Z,18.38
2024-05-09T13:06:18.537Z,17.85
2024-05-09T13:09:05.005Z,18.41
2024-05-09T13:11:48.864Z,18.64
2024-05-09T13:14:38.009Z,19.44
2024-05-09T13:17:24.771Z,18.41
2024-05-09T13:20:14.928Z,17.82
2024-05-09T13:23:07.900Z,18.00
2024-05-09T13:25:55.031Z,17.74
2024-05-09T13:28:38.777Z,17.36
2024-05-09T13:31:27.914Z,17.59
2024-05-09T13:34:11.901Z,17.72
2024-05-09T13:36:58.335Z,17.58
2024-05-09T13:39:42.543Z,17.78
2024-05-09T13:42:29.133Z,18.10
2024-05-09T13:44:57.801Z,17.57
2024-05-09T13:47:47.270Z,17.25
2024-05-09T13:50:35.143Z,17.48
2024-05-09T13:53:24.173Z,17.66
2024-05-09T13:56:08.927Z,17.60
2024-05-09T13:58:55.526Z,17.16
2024-05-09T14:01:39.776Z,17.57
2024-05-09T14:04:29.138Z,17.36
2024-05-09T14:07:13.266Z,17.09
2024-05-09T14:09:59.553Z,18.02
2024-05-09T14:12:43.394Z,17.54
2024-05-09T14:15:29.989Z,17.52
2024-05-09T14:18:14.736Z,17.60
2024-05-09T14:21:04.887Z,17.38
2024-05-09T14:23:48.751Z,17.14
2024-05-09T14:26:35.236Z,17.21
2024-05-09T14:29:18.986Z,17.53
2024-05-09T14:32:05.570Z,17.53
2024-05-09T14:34:49.540Z,17.78
2024-05-09T14:37:39.831Z,17.66
2024-05-09T14:43:13.975Z,17.80
2024-05-09T14:45:58.441Z,17.39
2024-05-09T14:48:45.515Z,17.72
2024-05-09T14:51:29.475Z,17.61
2024-05-09T14:54:18.587Z,17.45
2024-05-09T14:57:02.947Z,17.70
2024-05-09T14:59:49.831Z,17.79
2024-05-09T15:02:34.477Z,17.50
2024-05-09T15:05:21.131Z,17.80
2024-05-09T15:08:07.533Z,17.77
2024-05-09T15:10:56.926Z,17.68
2024-05-09T15:13:40.810Z,17.57
2024-05-09T15:16:27.610Z,17.65
2024-05-09T15:19:11.770Z,17.62
2024-05-09T15:21:58.086Z,17.71
2024-05-09T15:24:42.280Z,17.60
2024-05-09T15:27:31.127Z,17.49
2024-05-09T15:30:18.135Z,17.12
2024-05-09T15:33:08.165Z,17.31
2024-05-09T15:35:54.750Z,17.60
2024-05-09T15:38:39.408Z,17.31
2024-05-09T15:41:25.806Z,17.57
2024-05-09T15:44:12.670Z,17.23
2024-05-09T15:46:59.327Z,17.29
2024-05-09T15:49:43.437Z,17.25
2024-05-09T15:52:29.855Z,17.66
2024-05-09T15:55:14.366Z,17.30
2024-05-09T15:58:00.873Z,17.27
2024-05-09T16:00:52.128Z,17.43
2024-05-09T16:03:36.401Z,16.98
2024-05-09T16:06:22.660Z,17.51
2024-05-09T16:09:06.792Z,16.95
2024-05-09T16:11:52.999Z,16.76
2024-05-09T16:14:36.722Z,16.67
2024-05-09T16:17:26.064Z,16.75
2024-05-09T16:20:15.154Z,16.99
2024-05-09T16:23:04.744Z,16.82
2024-05-09T16:25:48.838Z,16.57
2024-05-09T16:28:36.914Z,17.14
2024-05-09T16:31:20.802Z,17.14
2024-05-09T16:34:10.939Z,16.94
2024-05-09T16:36:54.836Z,16.71
2024-05-09T16:39:41.394Z,16.60
2024-05-09T16:42:25.200Z,16.45
2024-05-09T16:45:12.460Z,16.11
2024-05-09T16:47:57.286Z,17.09
2024-05-09T16:50:46.471Z,16.66
2024-05-09T16:53:31.347Z,16.58
2024-05-09T16:56:17.878Z,16.72
2024-05-09T16:59:01.923Z,16.93
2024-05-09T17:01:48.550Z,16.68
2024-05-09T17:04:32.708Z,16.41
2024-05-09T17:07:22.031Z,16.73
2024-05-09T17:10:10.043Z,16.64
2024-05-09T17:12:58.764Z,16.42
2024-05-09T17:15:45.498Z,16.56
2024-05-09T17:18:31.964Z,16.41
2024-05-09T17:21:18.632Z,16.35
2024-05-09T17:24:05.270Z,16.61
2024-05-09T17:26:52.989Z,16.55
2024-05-09T17:29:37.539Z,16.46
2024-05-09T17:32:24.063Z,16.19
2024-05-09T17:35:08.171Z,16.59
2024-05-09T17:37:55.100Z,16.68
2024-05-09T17:40:41.698Z,16.65
2024-05-09T17:43:28.903Z,16.58
2024-05-09T17:46:13.090Z,16.58
2024-05-09T17:49:01.031Z,16.39
2024-05-09T17:51:51.949Z,16.49
2024-05-09T17:54:38.857Z,16.00
2024-05-09T17:57:26.522Z,16.21
2024-05-09T18:00:17.419Z,15.71
2024-05-09T18:03:05.296Z,15.57
2024-05-09T18:05:51.970Z,16.02
2024-05-09T18:08:35.899Z,15.91
2024-05-09T18:11:22.419Z,15.71
2024-05-09T18:14:09.201Z,16.36
2024-05-09T18:16:55.757Z,16.18
2024-05-09T18:19:39.677Z,15.78
2024-05-09T18:22:26.673Z,15.60
2024-05-09T18:25:10.881Z,16.33
2024-05-09T18:28:00.257Z,16.37
2024-05-09T18:30:46.905Z,16.13
2024-05-09T18:33:33.787Z,16.28
2024-05-09T18:36:20.577Z,16.17
2024-05-09T18:39:05.378Z,16.29
2024-05-09T18:41:51.973Z,15.67
2024-05-09T18:44:35.718Z,15.83
2024-05-09T18:47:24.928Z,15.77
2024-05-09T18:50:12.076Z,15.52
2024-05-09T18:53:03.914Z,15.99
2024-05-09T18:55:47.662Z,15.68
2024-05-09T18:58:19.645Z,15.39
2024-05-09T19:00:50.506Z,15.45
2024-05-09T19:03:26.803Z,15.65
2024-05-09T19:05:56.242Z,15.20
2024-05-09T19:08:28.584Z,15.18
2024-05-09T19:10:58.472Z,15.23
2024-05-09T19:13:30.118Z,15.16
2024-05-09T19:15:59.033Z,14.99
2024-05-09T19:18:33.905Z,14.86
2024-05-09T19:21:02.920Z,14.61
2024-05-09T19:23:38.261Z,14.67
2024-05-09T19:26:10.113Z,15.32
2024-05-09T19:28:42.038Z,14.52
2024-05-09T19:31:11.079Z,15.16
2024-05-09T19:33:45.458Z,14.95
2024-05-09T19:36:14.459Z,15.13
2024-05-09T19:38:46.110Z,14.95
2024-05-09T19:41:15.234Z,14.70
2024-05-09T19:43:47.047Z,14.57
2024-05-09T19:46:16.481Z,14.77
2024-05-09T19:48:51.114Z,14.70
2024-05-09T19:51:20.116Z,15.27
2024-05-09T19:53:52.348Z,14.77
2024-05-09T19:56:21.357Z,15.01
2024-05-09T19:58:52.763Z,15.09
2024-05-09T20:01:21.541Z,14.61
2024-05-09T20:03:59.236Z,14.31
2024-05-09T20:06:29.659Z,14.63
2024-05-09T20:09:01.126Z,14.75
2024-05-09T20:11:44.917Z,14.75
2024-05-09T20:14:31.473Z,14.83
2024-05-09T20:17:15.262Z,14.96
2024-05-09T20:20:07.333Z,14.40
2024-05-09T20:22:51.182Z,14.52
2024-05-09T20:25:37.590Z,13.71
2024-05-09T20:28:21.398Z,14.14
2024-05-09T20:31:08.646Z,14.21
2024-05-09T20:33:52.438Z,13.79
2024-05-09T20:36:41.818Z,14.06
2024-05-09T20:39:26.284Z,13.76
2024-05-09T20:42:12.835Z,13.94
2024-05-09T20:44:56.602Z,13.46
2024-05-09T20:47:43.201Z,13.58
2024-05-09T20:50:36.062Z,14.22
2024-05-09T20:53:29.180Z,14.25
2024-05-09T20:56:13.037Z,13.90
2024-05-09T20:59:00.464Z,13.75
2024-05-09T21:01:48.660Z,13.98
2024-05-09T21:04:35.625Z,13.99
2024-05-09T21:07:19.778Z,14.12
2024-05-09T21:10:15.628Z,14.05
2024-05-09T21:13:04.199Z,13.79
2024-05-09T21:15:51.257Z,13.96
2024-05-09T21:18:35.295Z,13.73
2024-05-09T21:21:21.934Z,13.85
2024-05-09T21:24:06.258Z,14.55
2024-05-09T21:26:55.543Z,14.05
2024-05-09T21:29:39.446Z,14.11
2024-05-09T21:32:26.179Z,14.03
2024-05-09T21:35:12.856Z,13.84
2024-05-09T21:37:56.791Z,13.50
2024-05-09T21:40:43.573Z,13.69
2024-05-09T21:43:31.709Z,14.05
2024-05-09T21:46:18.479Z,13.72
2024-05-09T21:49:03.431Z,13.95
2024-05-09T21:51:50.135Z,13.88
2024-05-09T21:54:34.113Z,13.60
2024-05-09T21:57:21.890Z,14.04
2024-05-09T22:00:27.920Z,13.44
2024-05-09T22:03:21.081Z,14.36
2024-05-09T22:06:05.229Z,14.17
2024-05-09T22:08:51.580Z,14.05
2024-05-09T22:11:35.520Z,14.04
2024-05-09T22:14:22.501Z,13.83
2024-05-09T22:17:09.118Z,13.47
2024-05-09T22:19:56.373Z,13.86
2024-05-09T22:22:41.925Z,13.77
2024-05-09T22:25:30.689Z,13.45
2024-05-09T22:28:16.096Z,13.50
2024-05-09T22:31:02.967Z,13.51
2024-05-09T22:33:49.833Z,13.43
2024-05-09T22:36:36.530Z,13.44
2024-05-09T22:39:20.828Z,13.53
2024-05-09T22:42:08.087Z,13.68
2024-05-09T22:44:51.987Z,13.35
2024-05-09T22:47:38.656Z,13.20
2024-05-09T22:50:27.073Z,13.32
2024-05-09T22:53:18.880Z,13.53
2024-05-09T22:56:02.818Z,13.43
2024-05-09T22:58:49.403Z,13.40
2024-05-09T23:01:33.465Z,13.21
2024-05-09T23:04:20.038Z,13.44
2024-05-09T23:07:07.825Z,13.34
2024-05-09T23:09:54.562Z,13.25
2024-05-09T23:12:41.739Z,13.26
2024-05-09T23:15:25.806Z,13.34
2024-05-09T23:18:12.352Z,13.44
2024-05-09T23:20:56.582Z,13.71
2024-05-09T23:23:45.919Z,13.18
2024-05-09T23:26:29.829Z,13.60
2024-05-09T23:29:16.383Z,13.40
2024-05-09T23:32:00.190Z,13.43
2024-05-09T23:34:46.755Z,13.47
2024-05-09T23:37:30.686Z,13.39
2024-05-09T23:40:23.236Z,13.39
2024-05-09T23:43:08.518Z,13.28
2024-05-09T23:45:55.262Z,13.32
2024-05-09T23:48:39.180Z,13.06
2024-05-09T23:51:25.820Z,13.56
2024-05-09T23:54:09.612Z,13.53
2024-05-09T23:56:58.736Z,13.57
2024-05-09T23:59:42.530Z,13.66
